sensor_id;sensor_type;location;lat;lon;timestamp;P1;durP1;ratioP1;P2;durP2;ratioP2
51981;SDS011;37998;53.416;6.730;2022-08-02T00:00:12;4.82;;;3.00;;
51981;SDS011;37998;53.416;6.730;2022-08-02T00:02:39;8.45;;;3.63;;
51981;SDS011;37998;53.416;6.730;2022-08-02T00:05:06;8.55;;;3.65;;
51981;SDS011;37998;53.416;6.730;2022-08-02T00:07:32;5.40;;;3.60;;
51981;SDS011;37998;53.416;6.730;2022-08-02T00:09:58;7.72;;;4.30;;
51981;SDS011;37998;53.416;6.730;2022-08-02T00:12:24;9.23;;;4.05;;
51981;SDS011;37998;53.416;6.730;2022-08-02T00:14:50;12.32;;;5.03;;
51981;SDS011;37998;53.416;6.730;2022-08-02T00:17:16;13.52;;;4.32;;
51981;SDS011;37998;53.416;6.730;2022-08-02T00:19:42;9.25;;;4.30;;
51981;SDS011;37998;53.416;6.730;2022-08-02T00:22:08;8.98;;;3.92;;
51981;SDS011;37998;53.416;6.730;2022-08-02T00:24:33;10.02;;;4.28;;
51981;SDS011;37998;53.416;6.730;2022-08-02T00:26:59;9.48;;;4.45;;
51981;SDS011;37998;53.416;6.730;2022-08-02T00:29:27;9.10;;;4.50;;
51981;SDS011;37998;53.416;6.730;2022-08-02T00:31:56;11.73;;;4.05;;
51981;SDS011;37998;53.416;6.730;2022-08-02T00:34:22;9.32;;;4.60;;
51981;SDS011;37998;53.416;6.730;2022-08-02T00:36:48;11.18;;;4.85;;
51981;SDS011;37998;53.416;6.730;2022-08-02T00:39:14;8.77;;;4.47;;
51981;SDS011;37998;53.416;6.730;2022-08-02T00:41:46;10.60;;;4.85;;
51981;SDS011;37998;53.416;6.730;2022-08-02T00:44:14;11.65;;;4.75;;
51981;SDS011;37998;53.416;6.730;2022-08-02T00:46:40;14.85;;;5.30;;
51981;SDS011;37998;53.416;6.730;2022-08-02T00:49:06;10.57;;;5.45;;
51981;SDS011;37998;53.416;6.730;2022-08-02T00:51:32;15.05;;;5.63;;
51981;SDS011;37998;53.416;6.730;2022-08-02T00:53:58;11.90;;;5.05;;
51981;SDS011;37998;53.416;6.730;2022-08-02T00:56:23;12.95;;;5.18;;
51981;SDS011;37998;53.416;6.730;2022-08-02T00:58:49;12.00;;;5.20;;
51981;SDS011;37998;53.416;6.730;2022-08-02T01:01:15;7.97;;;4.95;;
51981;SDS011;37998;53.416;6.730;2022-08-02T01:03:40;13.18;;;5.35;;
51981;SDS011;37998;53.416;6.730;2022-08-02T01:06:06;11.77;;;5.38;;
51981;SDS011;37998;53.416;6.730;2022-08-02T01:08:32;7.30;;;5.03;;
51981;SDS011;37998;53.416;6.730;2022-08-02T01:10:58;10.07;;;5.15;;
51981;SDS011;37998;53.416;6.730;2022-08-02T01:13:24;8.18;;;4.93;;
51981;SDS011;37998;53.416;6.730;2022-08-02T01:15:54;13.63;;;4.78;;
51981;SDS011;37998;53.416;6.730;2022-08-02T01:18:27;8.48;;;4.72;;
51981;SDS011;37998;53.416;6.730;2022-08-02T01:28:34;10.32;;;4.05;;
51981;SDS011;37998;53.416;6.730;2022-08-02T01:33:53;9.23;;;4.90;;
51981;SDS011;37998;53.416;6.730;2022-08-02T01:36:25;9.40;;;4.60;;
51981;SDS011;37998;53.416;6.730;2022-08-02T01:38:55;12.93;;;5.22;;
51981;SDS011;37998;53.416;6.730;2022-08-02T01:41:23;8.23;;;4.47;;
51981;SDS011;37998;53.416;6.730;2022-08-02T01:43:53;11.73;;;5.03;;
51981;SDS011;37998;53.416;6.730;2022-08-02T01:46:21;10.48;;;4.15;;
51981;SDS011;37998;53.416;6.730;2022-08-02T01:48:48;10.65;;;3.83;;
51981;SDS011;37998;53.416;6.730;2022-08-02T01:51:17;6.30;;;3.20;;
51981;SDS011;37998;53.416;6.730;2022-08-02T01:54:04;9.90;;;4.45;;
51981;SDS011;37998;53.416;6.730;2022-08-02T01:56:35;10.02;;;3.80;;
51981;SDS011;37998;53.416;6.730;2022-08-02T01:59:03;7.03;;;3.50;;
51981;SDS011;37998;53.416;6.730;2022-08-02T02:01:32;6.07;;;3.22;;
51981;SDS011;37998;53.416;6.730;2022-08-02T02:04:00;9.48;;;3.63;;
51981;SDS011;37998;53.416;6.730;2022-08-02T02:06:27;7.65;;;4.20;;
51981;SDS011;37998;53.416;6.730;2022-08-02T02:08:53;5.80;;;3.60;;
51981;SDS011;37998;53.416;6.730;2022-08-02T02:11:20;9.27;;;3.40;;
51981;SDS011;37998;53.416;6.730;2022-08-02T02:13:46;8.23;;;3.42;;
51981;SDS011;37998;53.416;6.730;2022-08-02T02:16:14;11.27;;;4.28;;
51981;SDS011;37998;53.416;6.730;2022-08-02T02:18:40;10.40;;;3.42;;
51981;SDS011;37998;53.416;6.730;2022-08-02T02:21:08;9.15;;;3.83;;
51981;SDS011;37998;53.416;6.730;2022-08-02T02:23:36;15.80;;;4.97;;
51981;SDS011;37998;53.416;6.730;2022-08-02T02:26:02;9.07;;;3.45;;
51981;SDS011;37998;53.416;6.730;2022-08-02T02:28:29;8.98;;;4.07;;
51981;SDS011;37998;53.416;6.730;2022-08-02T02:31:01;8.57;;;3.20;;
51981;SDS011;37998;53.416;6.730;2022-08-02T02:33:31;9.05;;;3.33;;
51981;SDS011;37998;53.416;6.730;2022-08-02T02:35:59;10.20;;;3.50;;
51981;SDS011;37998;53.416;6.730;2022-08-02T02:38:27;10.38;;;3.65;;
51981;SDS011;37998;53.416;6.730;2022-08-02T02:40:57;9.35;;;3.28;;
51981;SDS011;37998;53.416;6.730;2022-08-02T02:43:26;9.07;;;3.35;;
51981;SDS011;37998;53.416;6.730;2022-08-02T02:45:54;7.55;;;3.10;;
51981;SDS011;37998;53.416;6.730;2022-08-02T02:48:21;7.60;;;3.28;;
51981;SDS011;37998;53.416;6.730;2022-08-02T02:50:47;9.20;;;3.08;;
51981;SDS011;37998;53.416;6.730;2022-08-02T02:53:15;9.13;;;3.42;;
51981;SDS011;37998;53.416;6.730;2022-08-02T02:55:42;8.27;;;3.70;;
51981;SDS011;37998;53.416;6.730;2022-08-02T02:58:08;10.10;;;3.22;;
51981;SDS011;37998;53.416;6.730;2022-08-02T03:00:35;9.65;;;3.15;;
51981;SDS011;37998;53.416;6.730;2022-08-02T03:03:19;8.95;;;3.35;;
51981;SDS011;37998;53.416;6.730;2022-08-02T03:05:46;10.20;;;3.40;;
51981;SDS011;37998;53.416;6.730;2022-08-02T03:08:12;6.18;;;4.07;;
51981;SDS011;37998;53.416;6.730;2022-08-02T03:10:38;9.43;;;3.35;;
51981;SDS011;37998;53.416;6.730;2022-08-02T03:13:03;7.35;;;3.90;;
51981;SDS011;37998;53.416;6.730;2022-08-02T03:15:30;7.70;;;3.08;;
51981;SDS011;37998;53.416;6.730;2022-08-02T03:17:56;9.57;;;3.22;;
51981;SDS011;37998;53.416;6.730;2022-08-02T03:20:22;8.73;;;3.50;;
51981;SDS011;37998;53.416;6.730;2022-08-02T03:22:47;11.93;;;3.33;;
51981;SDS011;37998;53.416;6.730;2022-08-02T03:25:14;10.10;;;3.83;;
51981;SDS011;37998;53.416;6.730;2022-08-02T03:27:40;9.52;;;3.70;;
51981;SDS011;37998;53.416;6.730;2022-08-02T03:30:07;11.35;;;4.03;;
51981;SDS011;37998;53.416;6.730;2022-08-02T03:32:35;8.30;;;3.38;;
51981;SDS011;37998;53.416;6.730;2022-08-02T03:35:03;7.53;;;3.45;;
51981;SDS011;37998;53.416;6.730;2022-08-02T03:37:30;6.95;;;3.63;;
51981;SDS011;37998;53.416;6.730;2022-08-02T03:39:58;12.88;;;4.10;;
51981;SDS011;37998;53.416;6.730;2022-08-02T03:42:25;11.25;;;3.55;;
51981;SDS011;37998;53.416;6.730;2022-08-02T03:44:53;10.52;;;4.10;;
51981;SDS011;37998;53.416;6.730;2022-08-02T03:47:20;9.40;;;3.95;;
51981;SDS011;37998;53.416;6.730;2022-08-02T03:49:47;8.60;;;4.10;;
51981;SDS011;37998;53.416;6.730;2022-08-02T03:52:13;13.02;;;4.68;;
51981;SDS011;37998;53.416;6.730;2022-08-02T03:54:39;8.52;;;4.78;;
51981;SDS011;37998;53.416;6.730;2022-08-02T03:57:05;8.25;;;4.50;;
51981;SDS011;37998;53.416;6.730;2022-08-02T03:59:41;7.35;;;3.95;;
51981;SDS011;37998;53.416;6.730;2022-08-02T04:02:09;8.98;;;4.38;;
51981;SDS011;37998;53.416;6.730;2022-08-02T04:04:35;12.35;;;4.60;;
51981;SDS011;37998;53.416;6.730;2022-08-02T04:07:01;11.15;;;4.10;;
51981;SDS011;37998;53.416;6.730;2022-08-02T04:09:27;11.75;;;4.10;;
51981;SDS011;37998;53.416;6.730;2022-08-02T04:11:52;9.95;;;4.53;;
51981;SDS011;37998;53.416;6.730;2022-08-02T04:14:18;8.13;;;4.20;;
51981;SDS011;37998;53.416;6.730;2022-08-02T04:16:46;10.40;;;4.47;;
51981;SDS011;37998;53.416;6.730;2022-08-02T04:19:18;11.52;;;4.50;;
51981;SDS011;37998;53.416;6.730;2022-08-02T04:21:56;14.13;;;4.85;;
51981;SDS011;37998;53.416;6.730;2022-08-02T04:24:26;13.48;;;5.15;;
51981;SDS011;37998;53.416;6.730;2022-08-02T04:26:56;9.65;;;4.60;;
51981;SDS011;37998;53.416;6.730;2022-08-02T04:29:24;12.40;;;5.18;;
51981;SDS011;37998;53.416;6.730;2022-08-02T04:31:50;13.05;;;4.55;;
51981;SDS011;37998;53.416;6.730;2022-08-02T04:34:17;11.05;;;4.40;;
51981;SDS011;37998;53.416;6.730;2022-08-02T04:36:44;14.25;;;4.90;;
51981;SDS011;37998;53.416;6.730;2022-08-02T04:39:10;9.18;;;4.47;;
51981;SDS011;37998;53.416;6.730;2022-08-02T04:41:39;13.50;;;4.55;;
51981;SDS011;37998;53.416;6.730;2022-08-02T04:44:06;9.93;;;4.47;;
51981;SDS011;37998;53.416;6.730;2022-08-02T04:46:32;13.02;;;4.85;;
51981;SDS011;37998;53.416;6.730;2022-08-02T04:48:59;8.52;;;4.80;;
51981;SDS011;37998;53.416;6.730;2022-08-02T04:51:24;11.98;;;4.53;;
51981;SDS011;37998;53.416;6.730;2022-08-02T04:53:50;16.50;;;4.57;;
51981;SDS011;37998;53.416;6.730;2022-08-02T04:56:15;10.02;;;4.57;;
51981;SDS011;37998;53.416;6.730;2022-08-02T04:58:41;6.25;;;4.53;;
51981;SDS011;37998;53.416;6.730;2022-08-02T05:01:07;9.35;;;4.82;;
51981;SDS011;37998;53.416;6.730;2022-08-02T05:03:32;11.10;;;4.95;;
51981;SDS011;37998;53.416;6.730;2022-08-02T05:05:58;11.65;;;4.95;;
51981;SDS011;37998;53.416;6.730;2022-08-02T05:08:25;13.57;;;5.40;;
51981;SDS011;37998;53.416;6.730;2022-08-02T05:10:50;10.48;;;5.22;;
51981;SDS011;37998;53.416;6.730;2022-08-02T05:13:16;14.25;;;5.05;;
51981;SDS011;37998;53.416;6.730;2022-08-02T05:15:42;14.55;;;5.53;;
51981;SDS011;37998;53.416;6.730;2022-08-02T05:18:08;15.27;;;5.80;;
51981;SDS011;37998;53.416;6.730;2022-08-02T05:20:33;8.85;;;4.97;;
51981;SDS011;37998;53.416;6.730;2022-08-02T05:22:59;15.70;;;6.15;;
51981;SDS011;37998;53.416;6.730;2022-08-02T05:25:25;12.13;;;5.78;;
51981;SDS011;37998;53.416;6.730;2022-08-02T05:27:50;12.70;;;5.65;;
51981;SDS011;37998;53.416;6.730;2022-08-02T05:30:16;12.32;;;5.43;;
51981;SDS011;37998;53.416;6.730;2022-08-02T05:32:43;11.38;;;5.47;;
51981;SDS011;37998;53.416;6.730;2022-08-02T05:35:12;13.90;;;5.50;;
51981;SDS011;37998;53.416;6.730;2022-08-02T05:37:41;12.38;;;5.30;;
51981;SDS011;37998;53.416;6.730;2022-08-02T05:40:07;9.70;;;5.18;;
51981;SDS011;37998;53.416;6.730;2022-08-02T05:42:34;14.77;;;5.57;;
51981;SDS011;37998;53.416;6.730;2022-08-02T05:44:59;13.48;;;5.40;;
51981;SDS011;37998;53.416;6.730;2022-08-02T05:47:25;12.15;;;5.57;;
51981;SDS011;37998;53.416;6.730;2022-08-02T05:49:51;13.13;;;5.53;;
51981;SDS011;37998;53.416;6.730;2022-08-02T05:52:17;12.02;;;5.47;;
51981;SDS011;37998;53.416;6.730;2022-08-02T05:54:48;9.27;;;5.38;;
51981;SDS011;37998;53.416;6.730;2022-08-02T06:00:04;13.55;;;5.60;;
51981;SDS011;37998;53.416;6.730;2022-08-02T06:05:22;11.25;;;5.15;;
51981;SDS011;37998;53.416;6.730;2022-08-02T06:07:51;8.55;;;4.88;;
51981;SDS011;37998;53.416;6.730;2022-08-02T06:10:20;12.05;;;5.43;;
51981;SDS011;37998;53.416;6.730;2022-08-02T06:12:52;12.63;;;4.80;;
51981;SDS011;37998;53.416;6.730;2022-08-02T06:15:25;10.18;;;5.22;;
51981;SDS011;37998;53.416;6.730;2022-08-02T06:17:52;11.38;;;5.50;;
51981;SDS011;37998;53.416;6.730;2022-08-02T06:20:18;12.38;;;5.32;;
51981;SDS011;37998;53.416;6.730;2022-08-02T06:22:44;12.43;;;4.78;;
51981;SDS011;37998;53.416;6.730;2022-08-02T06:25:11;9.95;;;4.75;;
51981;SDS011;37998;53.416;6.730;2022-08-02T06:27:39;11.43;;;5.00;;
51981;SDS011;37998;53.416;6.730;2022-08-02T06:30:06;12.60;;;4.78;;
51981;SDS011;37998;53.416;6.730;2022-08-02T06:32:33;9.45;;;4.80;;
51981;SDS011;37998;53.416;6.730;2022-08-02T06:35:00;9.43;;;4.43;;
51981;SDS011;37998;53.416;6.730;2022-08-02T06:37:41;13.88;;;4.72;;
51981;SDS011;37998;53.416;6.730;2022-08-02T06:43:05;9.85;;;4.07;;
51981;SDS011;37998;53.416;6.730;2022-08-02T06:45:42;12.95;;;4.63;;
51981;SDS011;37998;53.416;6.730;2022-08-02T06:48:08;12.90;;;4.70;;
51981;SDS011;37998;53.416;6.730;2022-08-02T06:50:34;13.70;;;4.97;;
51981;SDS011;37998;53.416;6.730;2022-08-02T06:53:03;9.13;;;4.10;;
51981;SDS011;37998;53.416;6.730;2022-08-02T06:55:30;15.25;;;5.28;;
51981;SDS011;37998;53.416;6.730;2022-08-02T06:57:56;8.63;;;3.95;;
51981;SDS011;37998;53.416;6.730;2022-08-02T07:00:22;10.65;;;4.15;;
51981;SDS011;37998;53.416;6.730;2022-08-02T07:02:48;9.27;;;4.00;;
51981;SDS011;37998;53.416;6.730;2022-08-02T07:05:14;7.30;;;3.63;;
51981;SDS011;37998;53.416;6.730;2022-08-02T07:07:40;12.70;;;3.85;;
51981;SDS011;37998;53.416;6.730;2022-08-02T07:10:06;10.73;;;3.80;;
51981;SDS011;37998;53.416;6.730;2022-08-02T07:12:32;10.70;;;4.03;;
51981;SDS011;37998;53.416;6.730;2022-08-02T07:15:01;8.15;;;3.47;;
51981;SDS011;37998;53.416;6.730;2022-08-02T07:17:29;10.30;;;4.03;;
51981;SDS011;37998;53.416;6.730;2022-08-02T07:19:56;7.97;;;3.40;;
51981;SDS011;37998;53.416;6.730;2022-08-02T07:22:22;7.53;;;3.35;;
51981;SDS011;37998;53.416;6.730;2022-08-02T07:24:50;9.32;;;3.58;;
51981;SDS011;37998;53.416;6.730;2022-08-02T07:27:17;8.82;;;3.33;;
51981;SDS011;37998;53.416;6.730;2022-08-02T07:29:44;8.23;;;3.25;;
51981;SDS011;37998;53.416;6.730;2022-08-02T07:32:09;11.85;;;3.45;;
51981;SDS011;37998;53.416;6.730;2022-08-02T07:34:35;7.97;;;3.40;;
51981;SDS011;37998;53.416;6.730;2022-08-02T07:37:01;6.32;;;2.85;;
51981;SDS011;37998;53.416;6.730;2022-08-02T07:39:27;5.75;;;2.60;;
51981;SDS011;37998;53.416;6.730;2022-08-02T07:41:53;11.60;;;3.33;;
51981;SDS011;37998;53.416;6.730;2022-08-02T07:44:19;4.40;;;2.80;;
51981;SDS011;37998;53.416;6.730;2022-08-02T07:46:46;7.45;;;2.60;;
51981;SDS011;37998;53.416;6.730;2022-08-02T07:49:12;5.85;;;2.45;;
51981;SDS011;37998;53.416;6.730;2022-08-02T07:51:42;3.17;;;1.90;;
51981;SDS011;37998;53.416;6.730;2022-08-02T07:54:09;7.45;;;2.60;;
51981;SDS011;37998;53.416;6.730;2022-08-02T07:56:34;3.80;;;2.13;;
51981;SDS011;37998;53.416;6.730;2022-08-02T07:59:01;6.82;;;2.05;;
51981;SDS011;37998;53.416;6.730;2022-08-02T08:01:27;7.78;;;2.65;;
51981;SDS011;37998;53.416;6.730;2022-08-02T08:03:53;5.60;;;2.00;;
51981;SDS011;37998;53.416;6.730;2022-08-02T08:06:19;4.38;;;1.98;;
51981;SDS011;37998;53.416;6.730;2022-08-02T08:08:44;5.30;;;1.80;;
51981;SDS011;37998;53.416;6.730;2022-08-02T08:11:10;7.65;;;1.83;;
51981;SDS011;37998;53.416;6.730;2022-08-02T08:13:36;3.03;;;2.00;;
51981;SDS011;37998;53.416;6.730;2022-08-02T08:16:01;4.78;;;1.33;;
51981;SDS011;37998;53.416;6.730;2022-08-02T08:18:28;7.50;;;1.98;;
51981;SDS011;37998;53.416;6.730;2022-08-02T08:20:53;4.95;;;1.40;;
51981;SDS011;37998;53.416;6.730;2022-08-02T08:23:19;7.90;;;2.20;;
51981;SDS011;37998;53.416;6.730;2022-08-02T08:25:45;3.08;;;1.48;;
51981;SDS011;37998;53.416;6.730;2022-08-02T08:28:11;4.40;;;1.83;;
51981;SDS011;37998;53.416;6.730;2022-08-02T08:30:38;4.70;;;1.63;;
51981;SDS011;37998;53.416;6.730;2022-08-02T08:33:04;5.35;;;1.92;;
51981;SDS011;37998;53.416;6.730;2022-08-02T08:35:30;2.15;;;1.50;;
51981;SDS011;37998;53.416;6.730;2022-08-02T08:37:55;5.10;;;1.63;;
51981;SDS011;37998;53.416;6.730;2022-08-02T08:40:23;3.35;;;1.40;;
51981;SDS011;37998;53.416;6.730;2022-08-02T08:42:50;2.97;;;1.48;;
51981;SDS011;37998;53.416;6.730;2022-08-02T08:45:16;4.45;;;1.40;;
51981;SDS011;37998;53.416;6.730;2022-08-02T08:47:42;2.92;;;1.45;;
51981;SDS011;37998;53.416;6.730;2022-08-02T08:50:20;3.83;;;1.60;;
51981;SDS011;37998;53.416;6.730;2022-08-02T08:53:09;3.58;;;1.63;;
51981;SDS011;37998;53.416;6.730;2022-08-02T08:55:35;2.78;;;1.20;;
51981;SDS011;37998;53.416;6.730;2022-08-02T08:58:02;3.13;;;1.63;;
51981;SDS011;37998;53.416;6.730;2022-08-02T09:00:29;2.35;;;1.30;;
51981;SDS011;37998;53.416;6.730;2022-08-02T09:02:57;3.60;;;1.88;;
51981;SDS011;37998;53.416;6.730;2022-08-02T09:05:23;4.28;;;1.40;;
51981;SDS011;37998;53.416;6.730;2022-08-02T09:07:49;2.35;;;1.10;;
51981;SDS011;37998;53.416;6.730;2022-08-02T09:15:45;3.17;;;1.30;;
51981;SDS011;37998;53.416;6.730;2022-08-02T09:18:38;4.87;;;1.87;;
51981;SDS011;37998;53.416;6.730;2022-08-02T09:21:05;3.13;;;1.15;;
51981;SDS011;37998;53.416;6.730;2022-08-02T09:23:35;3.13;;;1.48;;
51981;SDS011;37998;53.416;6.730;2022-08-02T09:26:09;5.60;;;1.40;;
51981;SDS011;37998;53.416;6.730;2022-08-02T09:28:38;2.47;;;1.38;;
51981;SDS011;37998;53.416;6.730;2022-08-02T09:31:07;2.40;;;1.48;;
51981;SDS011;37998;53.416;6.730;2022-08-02T09:33:35;3.88;;;1.40;;
51981;SDS011;37998;53.416;6.730;2022-08-02T09:36:08;3.60;;;1.23;;
51981;SDS011;37998;53.416;6.730;2022-08-02T09:38:37;5.22;;;1.33;;
51981;SDS011;37998;53.416;6.730;2022-08-02T09:41:04;2.40;;;1.13;;
51981;SDS011;37998;53.416;6.730;2022-08-02T09:43:43;2.30;;;1.20;;
51981;SDS011;37998;53.416;6.730;2022-08-02T09:46:16;7.95;;;1.27;;
51981;SDS011;37998;53.416;6.730;2022-08-02T09:51:23;2.45;;;1.27;;
51981;SDS011;37998;53.416;6.730;2022-08-02T09:53:53;2.75;;;1.33;;
51981;SDS011;37998;53.416;6.730;2022-08-02T09:56:20;4.22;;;1.05;;
51981;SDS011;37998;53.416;6.730;2022-08-02T09:58:46;1.50;;;1.00;;
51981;SDS011;37998;53.416;6.730;2022-08-02T10:01:13;9.27;;;1.45;;
51981;SDS011;37998;53.416;6.730;2022-08-02T10:06:38;2.30;;;1.02;;
51981;SDS011;37998;53.416;6.730;2022-08-02T10:09:06;1.77;;;1.25;;
51981;SDS011;37998;53.416;6.730;2022-08-02T10:11:32;2.50;;;1.30;;
51981;SDS011;37998;53.416;6.730;2022-08-02T10:13:59;2.88;;;1.27;;
51981;SDS011;37998;53.416;6.730;2022-08-02T10:16:27;4.63;;;1.48;;
51981;SDS011;37998;53.416;6.730;2022-08-02T10:18:54;4.65;;;1.23;;
51981;SDS011;37998;53.416;6.730;2022-08-02T10:24:15;2.03;;;1.27;;
51981;SDS011;37998;53.416;6.730;2022-08-02T10:26:44;2.95;;;1.40;;
51981;SDS011;37998;53.416;6.730;2022-08-02T10:29:15;3.70;;;1.58;;
51981;SDS011;37998;53.416;6.730;2022-08-02T10:34:35;2.55;;;1.55;;
51981;SDS011;37998;53.416;6.730;2022-08-02T10:37:07;3.15;;;1.80;;
51981;SDS011;37998;53.416;6.730;2022-08-02T10:39:41;3.92;;;1.80;;
51981;SDS011;37998;53.416;6.730;2022-08-02T10:42:08;3.70;;;2.08;;
51981;SDS011;37998;53.416;6.730;2022-08-02T10:44:35;4.25;;;1.90;;
51981;SDS011;37998;53.416;6.730;2022-08-02T10:49:48;13.32;;;2.50;;
51981;SDS011;37998;53.416;6.730;2022-08-02T10:52:15;4.03;;;1.98;;
51981;SDS011;37998;53.416;6.730;2022-08-02T10:54:42;3.90;;;2.05;;
51981;SDS011;37998;53.416;6.730;2022-08-02T10:59:45;5.13;;;2.00;;
51981;SDS011;37998;53.416;6.730;2022-08-02T11:02:12;2.58;;;1.90;;
51981;SDS011;37998;53.416;6.730;2022-08-02T11:07:16;3.28;;;2.03;;
51981;SDS011;37998;53.416;6.730;2022-08-02T11:09:43;5.22;;;2.42;;
51981;SDS011;37998;53.416;6.730;2022-08-02T11:12:14;4.85;;;2.20;;
51981;SDS011;37998;53.416;6.730;2022-08-02T11:14:42;8.95;;;2.75;;
51981;SDS011;37998;53.416;6.730;2022-08-02T11:17:23;4.47;;;2.60;;
51981;SDS011;37998;53.416;6.730;2022-08-02T11:22:36;4.57;;;2.70;;
51981;SDS011;37998;53.416;6.730;2022-08-02T11:27:46;5.88;;;2.67;;
51981;SDS011;37998;53.416;6.730;2022-08-02T11:30:22;4.75;;;2.60;;
51981;SDS011;37998;53.416;6.730;2022-08-02T11:32:49;5.57;;;3.00;;
51981;SDS011;37998;53.416;6.730;2022-08-02T11:35:19;5.65;;;3.25;;
51981;SDS011;37998;53.416;6.730;2022-08-02T11:37:45;4.95;;;2.90;;
51981;SDS011;37998;53.416;6.730;2022-08-02T11:40:12;5.78;;;3.30;;
51981;SDS011;37998;53.416;6.730;2022-08-02T11:42:40;5.57;;;2.88;;
51981;SDS011;37998;53.416;6.730;2022-08-02T11:45:14;5.03;;;3.08;;
51981;SDS011;37998;53.416;6.730;2022-08-02T11:47:47;3.65;;;2.90;;
51981;SDS011;37998;53.416;6.730;2022-08-02T11:50:15;5.63;;;3.03;;
51981;SDS011;37998;53.416;6.730;2022-08-02T11:52:42;7.15;;;3.10;;
51981;SDS011;37998;53.416;6.730;2022-08-02T11:55:09;6.10;;;3.28;;
51981;SDS011;37998;53.416;6.730;2022-08-02T11:57:35;5.97;;;3.00;;
51981;SDS011;37998;53.416;6.730;2022-08-02T12:00:02;4.53;;;2.80;;
51981;SDS011;37998;53.416;6.730;2022-08-02T12:02:29;6.80;;;3.55;;
51981;SDS011;37998;53.416;6.730;2022-08-02T12:05:06;5.55;;;2.78;;
51981;SDS011;37998;53.416;6.730;2022-08-02T12:07:33;6.63;;;2.90;;
51981;SDS011;37998;53.416;6.730;2022-08-02T12:10:03;4.60;;;2.97;;
51981;SDS011;37998;53.416;6.730;2022-08-02T12:12:31;7.22;;;3.13;;
51981;SDS011;37998;53.416;6.730;2022-08-02T12:14:56;3.55;;;3.03;;
51981;SDS011;37998;53.416;6.730;2022-08-02T12:17:23;6.85;;;3.67;;
51981;SDS011;37998;53.416;6.730;2022-08-02T12:20:08;4.85;;;2.95;;
51981;SDS011;37998;53.416;6.730;2022-08-02T12:22:35;5.35;;;3.65;;
51981;SDS011;37998;53.416;6.730;2022-08-02T12:25:23;5.53;;;3.08;;
51981;SDS011;37998;53.416;6.730;2022-08-02T12:27:48;6.25;;;3.50;;
51981;SDS011;37998;53.416;6.730;2022-08-02T12:30:15;6.72;;;2.90;;
51981;SDS011;37998;53.416;6.730;2022-08-02T12:32:42;7.53;;;3.05;;
51981;SDS011;37998;53.416;6.730;2022-08-02T12:37:37;5.65;;;3.30;;
51981;SDS011;37998;53.416;6.730;2022-08-02T12:40:24;5.82;;;3.58;;
51981;SDS011;37998;53.416;6.730;2022-08-02T12:43:00;8.25;;;3.13;;
51981;SDS011;37998;53.416;6.730;2022-08-02T12:45:28;3.72;;;3.30;;
51981;SDS011;37998;53.416;6.730;2022-08-02T12:47:56;5.78;;;3.05;;
51981;SDS011;37998;53.416;6.730;2022-08-02T12:50:24;5.35;;;3.03;;
51981;SDS011;37998;53.416;6.730;2022-08-02T12:53:14;8.38;;;3.50;;
51981;SDS011;37998;53.416;6.730;2022-08-02T12:58:14;10.02;;;4.47;;
51981;SDS011;37998;53.416;6.730;2022-08-02T13:00:40;4.70;;;4.25;;
51981;SDS011;37998;53.416;6.730;2022-08-02T13:03:06;7.88;;;4.65;;
51981;SDS011;37998;53.416;6.730;2022-08-02T13:05:33;6.22;;;4.03;;
51981;SDS011;37998;53.416;6.730;2022-08-02T13:08:00;3.50;;;3.20;;
51981;SDS011;37998;53.416;6.730;2022-08-02T13:10:27;6.97;;;3.78;;
51981;SDS011;37998;53.416;6.730;2022-08-02T13:12:53;4.40;;;2.95;;
51981;SDS011;37998;53.416;6.730;2022-08-02T13:15:19;3.53;;;2.80;;
51981;SDS011;37998;53.416;6.730;2022-08-02T13:17:45;4.72;;;2.67;;
51981;SDS011;37998;53.416;6.730;2022-08-02T13:20:12;3.20;;;2.65;;
51981;SDS011;37998;53.416;6.730;2022-08-02T13:22:38;3.50;;;2.88;;
51981;SDS011;37998;53.416;6.730;2022-08-02T13:25:05;4.28;;;3.20;;
51981;SDS011;37998;53.416;6.730;2022-08-02T13:27:31;8.30;;;3.40;;
51981;SDS011;37998;53.416;6.730;2022-08-02T13:29:58;5.07;;;4.00;;
51981;SDS011;37998;53.416;6.730;2022-08-02T13:32:25;5.40;;;4.28;;
51981;SDS011;37998;53.416;6.730;2022-08-02T13:34:53;6.10;;;4.63;;
51981;SDS011;37998;53.416;6.730;2022-08-02T13:37:19;7.18;;;5.10;;
51981;SDS011;37998;53.416;6.730;2022-08-02T13:39:45;5.75;;;4.60;;
51981;SDS011;37998;53.416;6.730;2022-08-02T13:42:12;5.68;;;5.18;;
51981;SDS011;37998;53.416;6.730;2022-08-02T13:44:38;7.05;;;5.13;;
51981;SDS011;37998;53.416;6.730;2022-08-02T13:47:04;5.63;;;4.72;;
51981;SDS011;37998;53.416;6.730;2022-08-02T13:49:29;7.65;;;4.60;;
51981;SDS011;37998;53.416;6.730;2022-08-02T13:51:55;5.30;;;4.80;;
51981;SDS011;37998;53.416;6.730;2022-08-02T13:54:21;7.80;;;5.47;;
51981;SDS011;37998;53.416;6.730;2022-08-02T13:56:46;7.85;;;5.10;;
51981;SDS011;37998;53.416;6.730;2022-08-02T13:59:12;7.78;;;4.30;;
51981;SDS011;37998;53.416;6.730;2022-08-02T14:01:38;5.03;;;4.03;;
51981;SDS011;37998;53.416;6.730;2022-08-02T14:04:03;5.72;;;3.53;;
51981;SDS011;37998;53.416;6.730;2022-08-02T14:06:29;6.75;;;3.75;;
51981;SDS011;37998;53.416;6.730;2022-08-02T14:08:55;6.13;;;4.15;;
51981;SDS011;37998;53.416;6.730;2022-08-02T14:11:21;8.43;;;5.03;;
51981;SDS011;37998;53.416;6.730;2022-08-02T14:13:46;8.85;;;5.07;;
51981;SDS011;37998;53.416;6.730;2022-08-02T14:16:12;7.30;;;5.00;;
51981;SDS011;37998;53.416;6.730;2022-08-02T14:18:38;6.40;;;5.07;;
51981;SDS011;37998;53.416;6.730;2022-08-02T14:21:03;8.32;;;5.53;;
51981;SDS011;37998;53.416;6.730;2022-08-02T14:23:29;6.38;;;5.30;;
51981;SDS011;37998;53.416;6.730;2022-08-02T14:25:56;6.85;;;5.22;;
51981;SDS011;37998;53.416;6.730;2022-08-02T14:28:22;8.65;;;5.60;;
51981;SDS011;37998;53.416;6.730;2022-08-02T14:30:48;10.48;;;5.43;;
51981;SDS011;37998;53.416;6.730;2022-08-02T14:33:14;10.02;;;5.43;;
51981;SDS011;37998;53.416;6.730;2022-08-02T14:35:40;7.15;;;4.43;;
51981;SDS011;37998;53.416;6.730;2022-08-02T14:38:06;7.47;;;5.68;;
51981;SDS011;37998;53.416;6.730;2022-08-02T14:40:32;11.40;;;5.70;;
51981;SDS011;37998;53.416;6.730;2022-08-02T14:43:00;7.38;;;5.28;;
51981;SDS011;37998;53.416;6.730;2022-08-02T14:45:27;8.45;;;4.80;;
51981;SDS011;37998;53.416;6.730;2022-08-02T14:47:53;8.77;;;5.63;;
51981;SDS011;37998;53.416;6.730;2022-08-02T14:50:19;9.02;;;7.03;;
51981;SDS011;37998;53.416;6.730;2022-08-02T14:52:46;14.75;;;7.38;;
51981;SDS011;37998;53.416;6.730;2022-08-02T14:55:13;19.42;;;8.20;;
51981;SDS011;37998;53.416;6.730;2022-08-02T14:57:39;11.98;;;7.82;;
51981;SDS011;37998;53.416;6.730;2022-08-02T15:00:05;11.98;;;8.43;;
51981;SDS011;37998;53.416;6.730;2022-08-02T15:02:31;9.23;;;6.65;;
51981;SDS011;37998;53.416;6.730;2022-08-02T15:04:57;7.13;;;5.97;;
51981;SDS011;37998;53.416;6.730;2022-08-02T15:07:23;7.53;;;6.00;;
51981;SDS011;37998;53.416;6.730;2022-08-02T15:09:49;7.15;;;5.35;;
51981;SDS011;37998;53.416;6.730;2022-08-02T15:12:15;7.40;;;6.07;;
51981;SDS011;37998;53.416;6.730;2022-08-02T15:14:41;8.23;;;6.35;;
51981;SDS011;37998;53.416;6.730;2022-08-02T15:17:07;7.80;;;6.47;;
51981;SDS011;37998;53.416;6.730;2022-08-02T15:19:33;9.35;;;6.40;;
51981;SDS011;37998;53.416;6.730;2022-08-02T15:21:59;7.25;;;6.32;;
51981;SDS011;37998;53.416;6.730;2022-08-02T15:24:25;9.32;;;6.63;;
51981;SDS011;37998;53.416;6.730;2022-08-02T15:26:51;11.13;;;7.65;;
51981;SDS011;37998;53.416;6.730;2022-08-02T15:29:18;13.43;;;6.53;;
51981;SDS011;37998;53.416;6.730;2022-08-02T15:31:44;6.95;;;5.70;;
51981;SDS011;37998;53.416;6.730;2022-08-02T15:34:10;9.73;;;7.82;;
51981;SDS011;37998;53.416;6.730;2022-08-02T15:36:36;10.15;;;6.53;;
51981;SDS011;37998;53.416;6.730;2022-08-02T15:39:02;9.55;;;7.35;;